sensor_id;sensor_type;location;lat;lon;timestamp;pressure;altitude;pressure_sealevel;temperature;humidity
46464;BME280;32161;48.148;-1.554;2023-07-02T00:00:04;100879.38;;;16.83;76.27
46464;BME280;32161;48.148;-1.554;2023-07-02T00:02:33;100877.97;;;16.81;76.32
46464;BME280;32161;48.148;-1.554;2023-07-02T00:05:00;100879.34;;;16.78;76.45
46464;BME280;32161;48.148;-1.554;2023-07-02T00:07:29;100885.63;;;16.74;76.52
46464;BME280;32161;48.148;-1.554;2023-07-02T00:09:57;100884.75;;;16.68;76.59
46464;BME280;32161;48.148;-1.554;2023-07-02T00:12:25;100886.38;;;16.64;76.75
46464;BME280;32161;48.148;-1.554;2023-07-02T00:14:52;100882.22;;;16.56;76.92
46464;BME280;32161;48.148;-1.554;2023-07-02T00:17:20;100884.09;;;16.46;77.47
46464;BME280;32161;48.148;-1.554;2023-07-02T00:19:48;100887.91;;;16.45;77.39
46464;BME280;32161;48.148;-1.554;2023-07-02T00:22:17;100888.72;;;16.40;77.53
46464;BME280;32161;48.148;-1.554;2023-07-02T00:24:46;100884.31;;;16.34;77.89
46464;BME280;32161;48.148;-1.554;2023-07-02T00:27:14;100880.75;;;16.39;77.90
46464;BME280;32161;48.148;-1.554;2023-07-02T00:29:41;100871.97;;;16.36;78.04
46464;BME280;32161;48.148;-1.554;2023-07-02T00:32:09;100877.16;;;16.33;78.06
46464;BME280;32161;48.148;-1.554;2023-07-02T00:34:37;100870.84;;;16.32;77.91
46464;BME280;32161;48.148;-1.554;2023-07-02T00:37:05;100880.38;;;16.25;78.20
46464;BME280;32161;48.148;-1.554;2023-07-02T00:39:32;100885.34;;;16.28;78.16
46464;BME280;32161;48.148;-1.554;2023-07-02T00:42:05;100874.66;;;16.26;78.17
46464;BME280;32161;48.148;-1.554;2023-07-02T00:44:32;100876.28;;;16.22;78.19
46464;BME280;32161;48.148;-1.554;2023-07-02T00:47:00;100869.09;;;16.16;78.44
46464;BME280;32161;48.148;-1.554;2023-07-02T00:49:27;100866.66;;;16.20;78.39
46464;BME280;32161;48.148;-1.554;2023-07-02T00:51:55;100874.59;;;16.21;78.53
46464;BME280;32161;48.148;-1.554;2023-07-02T00:54:23;100870.78;;;16.22;78.50
46464;BME280;32161;48.148;-1.554;2023-07-02T00:56:51;100871.00;;;16.10;78.71
46464;BME280;32161;48.148;-1.554;2023-07-02T00:59:20;100866.84;;;16.08;78.86
46464;BME280;32161;48.148;-1.554;2023-07-02T01:01:47;100868.19;;;16.05;79.12
46464;BME280;32161;48.148;-1.554;2023-07-02T01:04:17;100873.44;;;16.07;79.10
46464;BME280;32161;48.148;-1.554;2023-07-02T01:06:45;100868.16;;;16.00;79.49
46464;BME280;32161;48.148;-1.554;2023-07-02T01:09:13;100869.56;;;16.03;79.61
46464;BME280;32161;48.148;-1.554;2023-07-02T01:11:44;100875.06;;;16.03;79.92
46464;BME280;32161;48.148;-1.554;2023-07-02T01:14:15;100875.28;;;15.96;79.84
46464;BME280;32161;48.148;-1.554;2023-07-02T01:16:47;100871.94;;;15.94;80.17
46464;BME280;32161;48.148;-1.554;2023-07-02T01:19:21;100875.22;;;15.91;80.34
46464;BME280;32161;48.148;-1.554;2023-07-02T01:21:51;100876.06;;;15.92;80.71
46464;BME280;32161;48.148;-1.554;2023-07-02T01:24:18;100877.19;;;15.96;80.60
46464;BME280;32161;48.148;-1.554;2023-07-02T01:26:47;100873.34;;;15.97;80.39
46464;BME280;32161;48.148;-1.554;2023-07-02T01:29:16;100868.91;;;15.91;80.62
46464;BME280;32161;48.148;-1.554;2023-07-02T01:31:44;100872.75;;;15.90;80.73
46464;BME280;32161;48.148;-1.554;2023-07-02T01:34:12;100868.38;;;15.89;80.68
46464;BME280;32161;48.148;-1.554;2023-07-02T01:36:40;100868.59;;;15.87;80.77
46464;BME280;32161;48.148;-1.554;2023-07-02T01:39:08;100868.91;;;15.91;80.74
46464;BME280;32161;48.148;-1.554;2023-07-02T01:41:44;100866.41;;;15.84;80.91
46464;BME280;32161;48.148;-1.554;2023-07-02T01:44:12;100876.50;;;15.78;81.06
46464;BME280;32161;48.148;-1.554;2023-07-02T01:46:39;100864.41;;;15.74;81.41
46464;BME280;32161;48.148;-1.554;2023-07-02T01:49:07;100869.06;;;15.74;81.42
46464;BME280;32161;48.148;-1.554;2023-07-02T01:51:34;100869.06;;;15.74;81.72
46464;BME280;32161;48.148;-1.554;2023-07-02T01:54:02;100884.66;;;15.68;82.08
46464;BME280;32161;48.148;-1.554;2023-07-02T01:56:31;100880.53;;;15.71;82.15
46464;BME280;32161;48.148;-1.554;2023-07-02T01:58:59;100884.31;;;15.65;82.22
46464;BME280;32161;48.148;-1.554;2023-07-02T02:01:26;100875.78;;;15.61;82.68
46464;BME280;32161;48.148;-1.554;2023-07-02T02:03:54;100881.25;;;15.61;82.76
46464;BME280;32161;48.148;-1.554;2023-07-02T02:06:21;100882.03;;;15.56;82.92
46464;BME280;32161;48.148;-1.554;2023-07-02T02:08:49;100878.53;;;15.61;83.16
46464;BME280;32161;48.148;-1.554;2023-07-02T02:11:16;100872.22;;;15.60;83.12
46464;BME280;32161;48.148;-1.554;2023-07-02T02:13:45;100871.94;;;15.62;83.08
46464;BME280;32161;48.148;-1.554;2023-07-02T02:16:15;100870.03;;;15.62;82.92
46464;BME280;32161;48.148;-1.554;2023-07-02T02:18:42;100876.84;;;15.60;83.18
46464;BME280;32161;48.148;-1.554;2023-07-02T02:21:10;100871.63;;;15.58;83.28
46464;BME280;32161;48.148;-1.554;2023-07-02T02:23:37;100881.47;;;15.54;83.39
46464;BME280;32161;48.148;-1.554;2023-07-02T02:26:05;100886.59;;;15.46;83.71
46464;BME280;32161;48.148;-1.554;2023-07-02T02:28:32;100884.91;;;15.45;84.16
46464;BME280;32161;48.148;-1.554;2023-07-02T02:31:01;100887.41;;;15.46;83.90
46464;BME280;32161;48.148;-1.554;2023-07-02T02:33:29;100886.59;;;15.46;83.82
46464;BME280;32161;48.148;-1.554;2023-07-02T02:35:57;100890.41;;;15.45;84.01
46464;BME280;32161;48.148;-1.554;2023-07-02T02:38:24;100885.50;;;15.47;83.95
46464;BME280;32161;48.148;-1.554;2023-07-02T02:40:52;100894.22;;;15.44;84.12
46464;BME280;32161;48.148;-1.554;2023-07-02T02:43:20;100889.28;;;15.41;84.14
46464;BME280;32161;48.148;-1.554;2023-07-02T02:45:48;100885.72;;;15.40;84.15
46464;BME280;32161;48.148;-1.554;2023-07-02T02:48:17;100889.81;;;15.37;84.24
46464;BME280;32161;48.148;-1.554;2023-07-02T02:50:45;100887.06;;;15.37;84.21
46464;BME280;32161;48.148;-1.554;2023-07-02T02:53:13;100890.38;;;15.39;83.98
46464;BME280;32161;48.148;-1.554;2023-07-02T02:55:40;100890.38;;;15.39;84.00
46464;BME280;32161;48.148;-1.554;2023-07-02T02:58:08;100892.75;;;15.31;84.27
46464;BME280;32161;48.148;-1.554;2023-07-02T03:00:35;100886.97;;;15.27;84.27
46464;BME280;32161;48.148;-1.554;2023-07-02T03:03:04;100884.22;;;15.27;84.28
46464;BME280;32161;48.148;-1.554;2023-07-02T03:05:33;100885.31;;;15.26;84.19
46464;BME280;32161;48.148;-1.554;2023-07-02T03:08:01;100889.66;;;15.22;84.32
46464;BME280;32161;48.148;-1.554;2023-07-02T03:10:28;100896.47;;;15.20;84.29
46464;BME280;32161;48.148;-1.554;2023-07-02T03:12:56;100903.25;;;15.17;84.38
46464;BME280;32161;48.148;-1.554;2023-07-02T03:15:23;100890.94;;;15.14;84.28
46464;BME280;32161;48.148;-1.554;2023-07-02T03:17:51;100889.84;;;15.16;84.59
46464;BME280;32161;48.148;-1.554;2023-07-02T03:20:18;100885.69;;;15.13;84.90
46464;BME280;32161;48.148;-1.554;2023-07-02T03:22:48;100895.50;;;15.09;84.98
46464;BME280;32161;48.148;-1.554;2023-07-02T03:25:16;100894.88;;;15.02;85.31
46464;BME280;32161;48.148;-1.554;2023-07-02T03:27:43;100891.09;;;15.03;85.34
46464;BME280;32161;48.148;-1.554;2023-07-02T03:30:11;100893.28;;;15.06;85.33
46464;BME280;32161;48.148;-1.554;2023-07-02T03:32:40;100888.06;;;15.04;85.18
46464;BME280;32161;48.148;-1.554;2023-07-02T03:35:08;100902.28;;;15.01;85.29
46464;BME280;32161;48.148;-1.554;2023-07-02T03:37:35;100901.19;;;15.02;85.35
46464;BME280;32161;48.148;-1.554;2023-07-02T03:40:07;100909.97;;;15.04;85.18
46464;BME280;32161;48.148;-1.554;2023-07-02T03:42:34;100898.97;;;14.99;85.31
46464;BME280;32161;48.148;-1.554;2023-07-02T03:45:02;100897.75;;;14.90;85.64
46464;BME280;32161;48.148;-1.554;2023-07-02T03:47:30;100903.53;;;14.94;85.83
46464;BME280;32161;48.148;-1.554;2023-07-02T03:49:58;100900.75;;;14.88;85.84
46464;BME280;32161;48.148;-1.554;2023-07-02T03:52:25;100908.38;;;14.86;85.95
46464;BME280;32161;48.148;-1.554;2023-07-02T03:54:53;100910.06;;;14.87;86.40
46464;BME280;32161;48.148;-1.554;2023-07-02T03:57:22;100912.25;;;14.90;86.04
46464;BME280;32161;48.148;-1.554;2023-07-02T03:59:49;100900.81;;;14.94;86.06
46464;BME280;32161;48.148;-1.554;2023-07-02T04:02:17;100906.56;;;14.92;86.47
46464;BME280;32161;48.148;-1.554;2023-07-02T04:04:44;100911.44;;;14.90;86.16
46464;BME280;32161;48.148;-1.554;2023-07-02T04:07:12;100904.06;;;14.90;86.55
46464;BME280;32161;48.148;-1.554;2023-07-02T04:09:39;100904.31;;;14.89;86.40
46464;BME280;32161;48.148;-1.554;2023-07-02T04:12:08;100905.72;;;14.92;86.46
46464;BME280;32161;48.148;-1.554;2023-07-02T04:14:37;100916.34;;;14.88;86.43
46464;BME280;32161;48.148;-1.554;2023-07-02T04:17:05;100910.06;;;14.87;86.73
46464;BME280;32161;48.148;-1.554;2023-07-02T04:19:33;100905.91;;;14.85;86.95
46464;BME280;32161;48.148;-1.554;2023-07-02T04:22:00;100906.47;;;14.87;87.11
46464;BME280;32161;48.148;-1.554;2023-07-02T04:24:28;100912.91;;;14.76;87.39
46464;BME280;32161;48.148;-1.554;2023-07-02T04:26:56;100918.63;;;14.74;87.83
46464;BME280;32161;48.148;-1.554;2023-07-02T04:29:23;100917.47;;;14.70;87.62
46464;BME280;32161;48.148;-1.554;2023-07-02T04:31:52;100919.13;;;14.71;88.01
46464;BME280;32161;48.148;-1.554;2023-07-02T04:34:20;100921.38;;;14.74;88.34
46464;BME280;32161;48.148;-1.554;2023-07-02T04:36:48;100922.97;;;14.70;88.36
46464;BME280;32161;48.148;-1.554;2023-07-02T04:39:15;100925.09;;;14.68;88.52
46464;BME280;32161;48.148;-1.554;2023-07-02T04:41:43;100921.88;;;14.71;88.52
46464;BME280;32161;48.148;-1.554;2023-07-02T04:44:10;100930.56;;;14.68;89.37
46464;BME280;32161;48.148;-1.554;2023-07-02T04:46:38;100926.00;;;14.74;89.29
46464;BME280;32161;48.148;-1.554;2023-07-02T04:49:07;100934.50;;;14.72;89.31
46464;BME280;32161;48.148;-1.554;2023-07-02T04:51:34;100929.03;;;14.72;89.54
46464;BME280;32161;48.148;-1.554;2023-07-02T04:54:02;100933.97;;;14.75;89.57
46464;BME280;32161;48.148;-1.554;2023-07-02T04:56:30;100926.34;;;14.77;89.47
46464;BME280;32161;48.148;-1.554;2023-07-02T04:58:57;100931.53;;;14.79;89.65
46464;BME280;32161;48.148;-1.554;2023-07-02T05:01:27;100934.03;;;14.80;89.74
46464;BME280;32161;48.148;-1.554;2023-07-02T05:03:54;100936.53;;;14.82;89.78
46464;BME280;32161;48.148;-1.554;2023-07-02T05:06:23;100934.88;;;14.81;89.86
46464;BME280;32161;48.148;-1.554;2023-07-02T05:08:50;100946.81;;;14.75;90.57
46464;BME280;32161;48.148;-1.554;2023-07-02T05:11:19;100937.28;;;14.77;90.79
46464;BME280;32161;48.148;-1.554;2023-07-02T05:13:46;100933.47;;;14.78;91.01
46464;BME280;32161;48.148;-1.554;2023-07-02T05:16:14;100936.78;;;14.80;91.11
46464;BME280;32161;48.148;-1.554;2023-07-02T05:18:42;100938.16;;;14.83;91.08
46464;BME280;32161;48.148;-1.554;2023-07-02T05:21:11;100945.88;;;14.86;91.69
46464;BME280;32161;48.148;-1.554;2023-07-02T05:23:40;100947.28;;;14.88;91.54
46464;BME280;32161;48.148;-1.554;2023-07-02T05:26:07;100935.25;;;14.89;92.05
46464;BME280;32161;48.148;-1.554;2023-07-02T05:28:35;100939.13;;;14.94;92.16
46464;BME280;32161;48.148;-1.554;2023-07-02T05:31:02;100941.69;;;15.00;92.38
46464;BME280;32161;48.148;-1.554;2023-07-02T05:33:30;100949.72;;;15.07;92.15
46464;BME280;32161;48.148;-1.554;2023-07-02T05:35:59;100948.50;;;14.98;93.18
46464;BME280;32161;48.148;-1.554;2023-07-02T05:38:26;100943.97;;;15.08;93.23
46464;BME280;32161;48.148;-1.554;2023-07-02T05:40:55;100944.94;;;15.19;93.03
46464;BME280;32161;48.148;-1.554;2023-07-02T05:43:23;100951.59;;;15.28;92.91
46464;BME280;32161;48.148;-1.554;2023-07-02T05:45:51;100951.63;;;15.33;92.89
46464;BME280;32161;48.148;-1.554;2023-07-02T05:48:19;100954.47;;;15.38;93.08
46464;BME280;32161;48.148;-1.554;2023-07-02T05:50:47;100951.28;;;15.52;92.71
46464;BME280;32161;48.148;-1.554;2023-07-02T05:53:14;100947.53;;;15.58;92.73
46464;BME280;32161;48.148;-1.554;2023-07-02T05:55:42;100948.38;;;15.58;93.02
46464;BME280;32161;48.148;-1.554;2023-07-02T05:58:11;100953.31;;;15.61;92.48
46464;BME280;32161;48.148;-1.554;2023-07-02T06:00:39;100952.63;;;15.71;93.24
46464;BME280;32161;48.148;-1.554;2023-07-02T06:03:07;100957.06;;;15.77;92.30
46464;BME280;32161;48.148;-1.554;2023-07-02T06:05:35;100958.25;;;15.86;92.00
46464;BME280;32161;48.148;-1.554;2023-07-02T06:08:03;100965.53;;;16.03;91.68
46464;BME280;32161;48.148;-1.554;2023-07-02T06:10:31;100961.25;;;16.17;91.06
46464;BME280;32161;48.148;-1.554;2023-07-02T06:12:58;100970.13;;;16.29;90.28
46464;BME280;32161;48.148;-1.554;2023-07-02T06:15:27;100961.69;;;16.41;89.96
46464;BME280;32161;48.148;-1.554;2023-07-02T06:17:55;100967.53;;;16.50;89.56
46464;BME280;32161;48.148;-1.554;2023-07-02T06:20:22;100961.22;;;16.49;89.59
46464;BME280;32161;48.148;-1.554;2023-07-02T06:22:50;100959.94;;;16.62;88.85
46464;BME280;32161;48.148;-1.554;2023-07-02T06:25:18;100965.25;;;16.74;88.09
46464;BME280;32161;48.148;-1.554;2023-07-02T06:27:45;100970.78;;;16.84;87.96
46464;BME280;32161;48.148;-1.554;2023-07-02T06:30:13;100972.53;;;17.00;87.01
46464;BME280;32161;48.148;-1.554;2023-07-02T06:32:42;100973.63;;;16.99;87.40
46464;BME280;32161;48.148;-1.554;2023-07-02T06:35:10;100976.09;;;17.06;86.91
46464;BME280;32161;48.148;-1.554;2023-07-02T06:37:37;100974.00;;;17.23;86.15
46464;BME280;32161;48.148;-1.554;2023-07-02T06:40:06;100974.56;;;17.30;85.64
46464;BME280;32161;48.148;-1.554;2023-07-02T06:42:34;100975.69;;;17.35;84.70
46464;BME280;32161;48.148;-1.554;2023-07-02T06:45:04;100976.50;;;17.35;84.13
46464;BME280;32161;48.148;-1.554;2023-07-02T06:47:32;100979.56;;;17.49;84.35
46464;BME280;32161;48.148;-1.554;2023-07-02T06:50:01;100988.41;;;17.66;83.30
46464;BME280;32161;48.148;-1.554;2023-07-02T06:52:28;100983.97;;;17.60;83.95
46464;BME280;32161;48.148;-1.554;2023-07-02T06:54:56;100989.72;;;17.43;84.08
46464;BME280;32161;48.148;-1.554;2023-07-02T06:57:23;100985.38;;;17.68;83.58
46464;BME280;32161;48.148;-1.554;2023-07-02T06:59:51;100994.72;;;17.72;83.45
46464;BME280;32161;48.148;-1.554;2023-07-02T07:02:18;100992.28;;;17.75;82.99
46464;BME280;32161;48.148;-1.554;2023-07-02T07:04:46;101005.28;;;17.95;82.41
46464;BME280;32161;48.148;-1.554;2023-07-02T07:07:15;101003.63;;;18.04;82.67
46464;BME280;32161;48.148;-1.554;2023-07-02T07:09:43;101001.97;;;18.19;81.57
46464;BME280;32161;48.148;-1.554;2023-07-02T07:12:10;100999.50;;;18.22;81.77
46464;BME280;32161;48.148;-1.554;2023-07-02T07:14:38;101005.00;;;18.17;81.72
46464;BME280;32161;48.148;-1.554;2023-07-02T07:17:06;101006.66;;;18.28;80.80
46464;BME280;32161;48.148;-1.554;2023-07-02T07:19:33;101014.91;;;18.23;80.44
46464;BME280;32161;48.148;-1.554;2023-07-02T07:22:01;101010.25;;;18.34;80.36
46464;BME280;32161;48.148;-1.554;2023-07-02T07:24:30;101014.63;;;18.50;80.23
46464;BME280;32161;48.148;-1.554;2023-07-02T07:26:58;101009.66;;;18.63;80.69
46464;BME280;32161;48.148;-1.554;2023-07-02T07:29:25;101014.34;;;18.77;79.17
46464;BME280;32161;48.148;-1.554;2023-07-02T07:31:53;101013.19;;;18.94;78.10
46464;BME280;32161;48.148;-1.554;2023-07-02T07:34:20;101007.66;;;19.04;77.18
46464;BME280;32161;48.148;-1.554;2023-07-02T07:36:48;101009.31;;;19.05;77.54
46464;BME280;32161;48.148;-1.554;2023-07-02T07:39:15;101006.50;;;19.20;76.79
46464;BME280;32161;48.148;-1.554;2023-07-02T07:41:48;101007.06;;;19.22;75.61
46464;BME280;32161;48.148;-1.554;2023-07-02T07:44:15;101007.56;;;19.35;75.81
46464;BME280;32161;48.148;-1.554;2023-07-02T07:46:43;101014.97;;;19.39;76.27
46464;BME280;32161;48.148;-1.554;2023-07-02T07:49:11;101020.75;;;19.43;74.83
46464;BME280;32161;48.148;-1.554;2023-07-02T07:51:39;101022.66;;;19.52;73.20
46464;BME280;32161;48.148;-1.554;2023-07-02T07:54:07;101012.44;;;19.53;73.64
46464;BME280;32161;48.148;-1.554;2023-07-02T07:56:34;101019.56;;;19.64;74.03
46464;BME280;32161;48.148;-1.554;2023-07-02T07:59:03;101021.75;;;19.67;72.18
46464;BME280;32161;48.148;-1.554;2023-07-02T08:01:31;101016.19;;;19.78;71.59
46464;BME280;32161;48.148;-1.554;2023-07-02T08:03:58;101017.72;;;19.94;70.65
46464;BME280;32161;48.148;-1.554;2023-07-02T08:06:26;101028.53;;;19.85;70.45
46464;BME280;32161;48.148;-1.554;2023-07-02T08:08:54;101018.53;;;19.94;71.46
46464;BME280;32161;48.148;-1.554;2023-07-02T08:11:22;101017.44;;;19.95;71.13
46464;BME280;32161;48.148;-1.554;2023-07-02T08:13:49;101016.28;;;20.02;71.41
46464;BME280;32161;48.148;-1.554;2023-07-02T08:16:18;101019.19;;;20.20;72.47
46464;BME280;32161;48.148;-1.554;2023-07-02T08:18:45;101025.19;;;20.28;70.57
46464;BME280;32161;48.148;-1.554;2023-07-02T08:21:13;101015.72;;;20.39;68.57
46464;BME280;32161;48.148;-1.554;2023-07-02T08:23:42;101028.66;;;20.43;67.39
46464;BME280;32161;48.148;-1.554;2023-07-02T08:26:10;101026.44;;;20.45;67.12
46464;BME280;32161;48.148;-1.554;2023-07-02T08:28:39;101027.78;;;20.48;67.29
46464;BME280;32161;48.148;-1.554;2023-07-02T08:31:07;101028.13;;;20.41;66.98
46464;BME280;32161;48.148;-1.554;2023-07-02T08:33:36;101033.94;;;20.40;65.99
46464;BME280;32161;48.148;-1.554;2023-07-02T08:36:04;101028.91;;;20.47;65.70
46464;BME280;32161;48.148;-1.554;2023-07-02T08:38:31;101031.66;;;20.47;66.24
46464;BME280;32161;48.148;-1.554;2023-07-02T08:40:59;101035.31;;;20.42;64.56
46464;BME280;32161;48.148;-1.554;2023-07-02T08:43:26;101033.06;;;20.50;63.29
46464;BME280;32161;48.148;-1.554;2023-07-02T08:45:54;101040.16;;;20.61;64.85
46464;BME280;32161;48.148;-1.554;2023-07-02T08:48:22;101030.84;;;20.81;65.33
46464;BME280;32161;48.148;-1.554;2023-07-02T08:50:51;101027.66;;;20.92;65.45
46464;BME280;32161;48.148;-1.554;2023-07-02T08:53:19;101027.66;;;21.16;64.19
46464;BME280;32161;48.148;-1.554;2023-07-02T08:55:51;101034.78;;;20.98;63.85
46464;BME280;32161;48.148;-1.554;2023-07-02T08:58:19;101032.31;;;20.97;62.83
46464;BME280;32161;48.148;-1.554;2023-07-02T09:01:05;101039.78;;;20.96;62.62
46464;BME280;32161;48.148;-1.554;2023-07-02T09:03:33;101038.41;;;20.94;63.01
46464;BME280;32161;48.148;-1.554;2023-07-02T09:06:02;101034.50;;;21.00;63.80
46464;BME280;32161;48.148;-1.554;2023-07-02T09:08:30;101032.63;;;21.19;63.59
46464;BME280;32161;48.148;-1.554;2023-07-02T09:11:07;101041.88;;;21.34;62.92
46464;BME280;32161;48.148;-1.554;2023-07-02T09:13:46;101042.13;;;21.37;61.84
46464;BME280;32161;48.148;-1.554;2023-07-02T09:16:27;101031.34;;;21.36;61.51
46464;BME280;32161;48.148;-1.554;2023-07-02T09:19:03;101031.72;;;21.48;60.81
46464;BME280;32161;48.148;-1.554;2023-07-02T09:21:45;101035.03;;;21.50;60.29
46464;BME280;32161;48.148;-1.554;2023-07-02T09:24:18;101027.72;;;21.78;62.16
46464;BME280;32161;48.148;-1.554;2023-07-02T09:26:47;101033.50;;;21.82;58.68
46464;BME280;32161;48.148;-1.554;2023-07-02T09:29:21;101039.34;;;21.80;58.69
46464;BME280;32161;48.148;-1.554;2023-07-02T09:31:49;101039.03;;;21.82;58.79
46464;BME280;32161;48.148;-1.554;2023-07-02T09:34:17;101034.56;;;22.24;59.06
46464;BME280;32161;48.148;-1.554;2023-07-02T09:36:46;101044.34;;;22.35;56.56
46464;BME280;32161;48.148;-1.554;2023-07-02T09:39:18;101033.56;;;22.33;57.18
46464;BME280;32161;48.148;-1.554;2023-07-02T09:41:49;101034.88;;;22.22;57.90
46464;BME280;32161;48.148;-1.554;2023-07-02T09:44:18;101041.81;;;22.20;57.58
46464;BME280;32161;48.148;-1.554;2023-07-02T09:46:58;101036.84;;;22.35;57.80
46464;BME280;32161;48.148;-1.554;2023-07-02T09:49:26;101039.91;;;22.53;56.57
46464;BME280;32161;48.148;-1.554;2023-07-02T09:51:55;101034.31;;;22.72;54.33
46464;BME280;32161;48.148;-1.554;2023-07-02T09:54:23;101043.91;;;22.93;55.85
46464;BME280;32161;48.148;-1.554;2023-07-02T09:56:51;101033.50;;;22.85;53.88
46464;BME280;32161;48.148;-1.554;2023-07-02T09:59:18;101035.66;;;22.88;54.69
46464;BME280;32161;48.148;-1.554;2023-07-02T10:01:46;101037.75;;;22.96;54.17
46464;BME280;32161;48.148;-1.554;2023-07-02T10:04:15;101045.72;;;22.84;54.59
46464;BME280;32161;48.148;-1.554;2023-07-02T10:06:49;101044.69;;;22.80;55.72
46464;BME280;32161;48.148;-1.554;2023-07-02T10:09:19;101040.94;;;22.57;54.28
46464;BME280;32161;48.148;-1.554;2023-07-02T10:11:47;101043.16;;;22.55;54.93
46464;BME280;32161;48.148;-1.554;2023-07-02T10:14:15;101045.13;;;22.54;55.58
46464;BME280;32161;48.148;-1.554;2023-07-02T10:16:50;101031.59;;;22.66;55.85
46464;BME280;32161;48.148;-1.554;2023-07-02T10:19:18;101034.19;;;22.77;55.00
46464;BME280;32161;48.148;-1.554;2023-07-02T10:21:46;101037.63;;;22.87;55.71
46464;BME280;32161;48.148;-1.554;2023-07-02T10:24:18;101033.44;;;23.04;54.99
46464;BME280;32161;48.148;-1.554;2023-07-02T10:26:56;101033.22;;;23.28;55.33
46464;BME280;32161;48.148;-1.554;2023-07-02T10:29:25;101036.31;;;23.26;55.09
46464;BME280;32161;48.148;-1.554;2023-07-02T10:31:55;101039.81;;;23.32;56.05
46464;BME280;32161;48.148;-1.554;2023-07-02T10:34:33;101045.56;;;23.22;55.39
46464;BME280;32161;48.148;-1.554;2023-07-02T10:37:01;101038.16;;;23.31;54.58
46464;BME280;32161;48.148;-1.554;2023-07-02T10:39:31;101048.75;;;23.43;55.71
46464;BME280;32161;48.148;-1.554;2023-07-02T10:42:06;101045.13;;;23.56;54.98
46464;BME280;32161;48.148;-1.554;2023-07-02T10:44:34;101035.69;;;23.57;53.83
46464;BME280;32161;48.148;-1.554;2023-07-02T10:47:04;101040.81;;;23.77;52.35
46464;BME280;32161;48.148;-1.554;2023-07-02T10:49:33;101039.19;;;23.76;50.51
46464;BME280;32161;48.148;-1.554;2023-07-02T10:52:01;101046.69;;;23.76;50.53
46464;BME280;32161;48.148;-1.554;2023-07-02T10:54:41;101030.75;;;23.68;50.73
46464;BME280;32161;48.148;-1.554;2023-07-02T10:57:10;101037.13;;;23.54;51.08
46464;BME280;32161;48.148;-1.554;2023-07-02T10:59:38;101034.53;;;23.58;52.37
46464;BME280;32161;48.148;-1.554;2023-07-02T11:02:06;101031.75;;;23.85;52.24
46464;BME280;32161;48.148;-1.554;2023-07-02T11:04:36;101031.09;;;24.02;52.02
46464;BME280;32161;48.148;-1.554;2023-07-02T11:07:05;101034.75;;;24.11;51.17
46464;BME280;32161;48.148;-1.554;2023-07-02T11:09:33;101027.66;;;24.05;50.21
46464;BME280;32161;48.148;-1.554;2023-07-02T11:12:02;101029.41;;;24.01;50.44
46464;BME280;32161;48.148;-1.554;2023-07-02T11:14:31;101029.31;;;24.06;50.91
46464;BME280;32161;48.148;-1.554;2023-07-02T11:17:02;101031.44;;;24.09;50.00
46464;BME280;32161;48.148;-1.554;2023-07-02T11:19:32;101039.47;;;24.11;51.25
46464;BME280;32161;48.148;-1.554;2023-07-02T11:22:00;101043.56;;;24.13;51.51
46464;BME280;32161;48.148;-1.554;2023-07-02T11:24:31;101048.88;;;24.24;50.66
46464;BME280;32161;48.148;-1.554;2023-07-02T11:26:59;101047.84;;;24.33;52.93
46464;BME280;32161;48.148;-1.554;2023-07-02T11:29:29;101043.72;;;24.31;52.06
46464;BME280;32161;48.148;-1.554;2023-07-02T11:32:05;101035.25;;;24.36;50.95
46464;BME280;32161;48.148;-1.554;2023-07-02T11:34:33;101032.22;;;24.24;50.32
46464;BME280;32161;48.148;-1.554;2023-07-02T11:37:01;101044.59;;;24.18;50.64
46464;BME280;32161;48.148;-1.554;2023-07-02T11:39:29;101047.28;;;24.09;50.64
46464;BME280;32161;48.148;-1.554;2023-07-02T11:41:57;101045.84;;;24.11;49.92
46464;BME280;32161;48.148;-1.554;2023-07-02T11:44:25;101056.72;;;23.85;51.27
46464;BME280;32161;48.148;-1.554;2023-07-02T11:46:53;101040.13;;;23.94;51.97
46464;BME280;32161;48.148;-1.554;2023-07-02T11:49:23;101041.91;;;23.90;53.06
46464;BME280;32161;48.148;-1.554;2023-07-02T11:51:51;101048.41;;;23.85;52.27
46464;BME280;32161;48.148;-1.554;2023-07-02T11:54:18;101048.41;;;23.85;53.21
46464;BME280;32161;48.148;-1.554;2023-07-02T11:56:46;101040.19;;;23.80;52.94
46464;BME280;32161;48.148;-1.554;2023-07-02T11:59:14;101042.63;;;23.96;53.67
46464;BME280;32161;48.148;-1.554;2023-07-02T12:01:41;101049.19;;;24.00;53.54
46464;BME280;32161;48.148;-1.554;2023-07-02T12:04:11;101047.06;;;23.83;51.25
46464;BME280;32161;48.148;-1.554;2023-07-02T12:06:39;101051.50;;;23.84;51.56
46464;BME280;32161;48.148;-1.554;2023-07-02T12:09:07;101051.50;;;23.84;50.92
46464;BME280;32161;48.148;-1.554;2023-07-02T12:11:35;101048.25;;;23.68;51.59
46464;BME280;32161;48.148;-1.554;2023-07-02T12:14:03;101048.44;;;23.72;52.76
46464;BME280;32161;48.148;-1.554;2023-07-02T12:16:30;101051.06;;;23.63;52.46
46464;BME280;32161;48.148;-1.554;2023-07-02T12:18:58;101059.72;;;23.61;52.79
46464;BME280;32161;48.148;-1.554;2023-07-02T12:21:27;101057.97;;;23.52;53.05
46464;BME280;32161;48.148;-1.554;2023-07-02T12:23:54;101059.94;;;23.51;53.35
46464;BME280;32161;48.148;-1.554;2023-07-02T12:26:22;101059.94;;;23.51;52.74
46464;BME280;32161;48.148;-1.554;2023-07-02T12:28:50;101067.31;;;23.56;52.16
46464;BME280;32161;48.148;-1.554;2023-07-02T12:31:17;101074.00;;;23.55;53.58
46464;BME280;32161;48.148;-1.554;2023-07-02T12:33:45;101072.50;;;23.49;52.58
46464;BME280;32161;48.148;-1.554;2023-07-02T12:36:13;101076.19;;;23.30;52.69
46464;BME280;32161;48.148;-1.554;2023-07-02T12:38:42;101073.69;;;23.01;53.06
46464;BME280;32161;48.148;-1.554;2023-07-02T12:41:09;101063.94;;;23.04;53.17
46464;BME280;32161;48.148;-1.554;2023-07-02T12:43:37;101079.22;;;23.01;53.76
46464;BME280;32161;48.148;-1.554;2023-07-02T12:46:06;101073.69;;;23.01;53.33